Sainte-Monique, Canada
Current Conditions -  °F | °C
As of 5:00 PM on Wednesday 28 Jan 2015 (Local Time) from CYRQ Reporting Station
Clear Clear  
Wind Chill:   Ceiling: Unl
Heat Index: 12°   Visibility: 9mi
Dew Point: -4°   Wind: 5mph
Humidity: 48%   Direction: 220°SW
Pressure: 30.18"   Gusts: NA
Location:  46.18°N, 72.5°W
Report Text: CYRQ 282200Z AUTO 22004KT 9SM CLR M11/M20 A3018 RMK SLP226
Loading
Personal Weather Stations






























Interactive Weather Map New forecast layout! Learn more

10-Day Weather Forecast

Advertisements
Track Severe Weather on mobile